Time;durP1;ratioP1;P1;durP2;ratioP2;P2;SDS_P1;SDS_P2;PMS_P1;PMS_P2;Temp;Humidity;BMP_temperature;BMP_pressure;BME280_temperature;BME280_humidity;BME280_pressure;Samples;Min_cycle;Max_cycle;Signal;HPM_P1;HPM_P2
2022/11/04 00:02:07;;;;;;;5.47;1.90;;;11.20;99.90;;;;;;5020998;28;20182;-87
2022/11/04 00:04:34;;;;;;;4.37;1.90;;;11.10;99.90;;;;;;5022956;28;20635;-89
2022/11/04 00:07:00;;;;;;;8.20;2.20;;;10.90;99.90;;;;;;5020127;28;20297;-86
2022/11/04 00:09:28;;;;;;;7.23;1.90;;;11.00;99.90;;;;;;5019865;28;20544;-90
2022/11/04 00:14:39;;;;;;;4.97;1.80;;;10.90;99.90;;;;;;5024678;28;20161;-90
2022/11/04 00:17:20;;;;;;;6.37;1.90;;;10.90;99.90;;;;;;5019742;28;20178;-90
2022/11/04 00:33:47;;;;;;;5.07;1.60;;;10.80;99.90;;;;;;5009565;28;20182;-90
2022/11/04 00:36:13;;;;;;;4.73;1.97;;;10.80;99.90;;;;;;5019103;28;20174;-89
2022/11/04 00:38:39;;;;;;;7.30;2.23;;;10.90;99.90;;;;;;5017267;28;20205;-88
2022/11/04 00:41:24;;;;;;;6.87;1.63;;;10.80;99.90;;;;;;5021446;28;20170;-90
2022/11/04 00:43:51;;;;;;;5.37;2.20;;;10.80;99.90;;;;;;5023626;28;20188;-89
2022/11/04 00:46:16;;;;;;;7.13;2.40;;;10.80;99.90;;;;;;5026501;28;20666;-87
2022/11/04 00:48:45;;;;;;;7.70;2.10;;;10.80;99.90;;;;;;5029960;28;20185;-87
2022/11/04 00:51:10;;;;;;;7.77;2.00;;;10.80;99.90;;;;;;5024842;28;20173;-89
2022/11/04 00:53:36;;;;;;;5.80;2.03;;;10.80;99.90;;;;;;5021590;28;20175;-90
2022/11/04 00:56:01;;;;;;;7.87;2.03;;;10.80;99.90;;;;;;5016714;28;20174;-90
2022/11/04 00:58:27;;;;;;;6.20;2.03;;;10.90;99.90;;;;;;5018193;28;20174;-87
2022/11/04 01:00:53;;;;;;;6.70;2.20;;;10.90;99.90;;;;;;5016244;28;20174;-89
2022/11/04 01:03:19;;;;;;;8.93;2.60;;;10.90;99.90;;;;;;5015910;28;20185;-89
2022/11/04 01:05:44;;;;;;;9.00;2.33;;;11.00;99.90;;;;;;5017874;28;20204;-90
2022/11/04 01:08:10;;;;;;;7.93;2.60;;;11.00;99.90;;;;;;5017540;28;20215;-85
2022/11/04 01:10:43;;;;;;;12.57;2.50;;;11.00;99.90;;;;;;5019575;28;20166;-88
2022/11/04 01:13:10;;;;;;;4.70;2.00;;;11.00;99.90;;;;;;5019782;28;20200;-90
2022/11/04 01:15:36;;;;;;;6.93;2.50;;;11.00;99.70;;;;;;5017782;28;20162;-89
2022/11/04 01:18:03;;;;;;;9.00;2.20;;;10.90;99.50;;;;;;5017370;28;20174;-90
2022/11/04 01:20:28;;;;;;;9.30;2.47;;;10.90;99.80;;;;;;5018113;28;20249;-90
2022/11/04 01:22:54;;;;;;;5.03;1.87;;;10.90;99.90;;;;;;5018522;28;20252;-90
2022/11/04 01:25:20;;;;;;;9.23;2.00;;;10.90;99.90;;;;;;5019578;28;20185;-90
2022/11/04 01:27:45;;;;;;;8.20;2.00;;;10.90;99.40;;;;;;5021068;28;20666;-89
2022/11/04 01:30:11;;;;;;;7.47;2.10;;;10.90;99.90;;;;;;5022116;28;20166;-89
2022/11/04 01:32:37;;;;;;;6.83;1.70;;;10.90;99.70;;;;;;5021898;28;20210;-88
2022/11/04 01:35:03;;;;;;;8.13;2.43;;;10.90;99.90;;;;;;5024361;28;20646;-88
2022/11/04 01:37:29;;;;;;;4.70;2.03;;;10.90;98.50;;;;;;5025353;28;20663;-89
2022/11/04 01:39:54;;;;;;;6.17;2.00;;;10.80;98.90;;;;;;5022120;28;20178;-88
2022/11/04 01:42:21;;;;;;;8.37;2.27;;;10.80;99.20;;;;;;5025310;28;20234;-88
2022/11/04 01:44:52;;;;;;;6.33;2.30;;;10.80;99.60;;;;;;5025568;28;20184;-88
2022/11/04 01:47:31;;;;;;;9.07;2.30;;;10.70;99.70;;;;;;5027087;28;20285;-90
2022/11/04 01:50:05;;;;;;;10.53;2.30;;;10.70;99.90;;;;;;5027761;28;20200;-89
2022/11/04 01:52:41;;;;;;;6.23;2.30;;;10.60;99.90;;;;;;5022558;28;20170;-91
2022/11/04 01:55:17;;;;;;;6.33;1.93;;;10.80;99.90;;;;;;5025865;28;20186;-89
2022/11/04 01:57:47;;;;;;;7.43;1.90;;;10.70;99.90;;;;;;5024238;28;20201;-88
2022/11/04 02:00:14;;;;;;;6.93;2.30;;;10.70;99.90;;;;;;5026226;28;20242;-88
2022/11/04 02:02:49;;;;;;;8.67;2.10;;;10.70;99.90;;;;;;5020373;28;20177;-88
2022/11/04 02:05:18;;;;;;;8.83;2.57;;;10.70;99.90;;;;;;5019882;28;20700;-89
2022/11/04 02:07:51;;;;;;;9.53;2.30;;;10.60;99.90;;;;;;5018949;28;20293;-89
2022/11/04 02:10:21;;;;;;;6.47;2.07;;;10.60;99.90;;;;;;5020368;28;20532;-86
2022/11/04 02:12:49;;;;;;;7.90;2.63;;;10.50;99.90;;;;;;5019976;28;20170;-88
2022/11/04 02:15:56;;;;;;;6.80;2.30;;;10.70;99.90;;;;;;5019941;28;20158;-91
2022/11/04 02:18:57;;;;;;;5.97;2.33;;;10.60;99.90;;;;;;5014837;28;20166;-84
2022/11/04 02:21:33;;;;;;;13.37;2.77;;;10.60;99.90;;;;;;5028205;28;20187;-88
2022/11/04 02:24:17;;;;;;;8.27;2.10;;;10.70;99.90;;;;;;5019694;28;20247;-89
2022/11/04 02:27:02;;;;;;;6.47;2.40;;;10.60;99.90;;;;;;5018313;28;20201;-89
2022/11/04 02:29:46;;;;;;;8.43;2.40;;;10.60;99.90;;;;;;5022671;28;20163;-89
2022/11/04 02:32:41;;;;;;;5.10;1.90;;;10.60;99.90;;;;;;5028896;28;20177;-88
2022/11/04 02:35:25;;;;;;;10.07;2.77;;;10.60;99.90;;;;;;5029110;28;20171;-89
2022/11/04 02:38:17;;;;;;;8.83;2.50;;;10.70;99.90;;;;;;5018778;28;20173;-88
2022/11/04 02:41:13;;;;;;;7.27;2.43;;;10.70;99.90;;;;;;5015689;28;20163;-90
2022/11/04 02:44:10;;;;;;;7.53;2.63;;;10.70;99.90;;;;;;5016974;28;20155;-90
2022/11/04 02:46:44;;;;;;;7.47;2.80;;;10.70;99.90;;;;;;5014843;28;20166;-88
2022/11/04 02:49:18;;;;;;;9.80;2.60;;;10.70;99.90;;;;;;5015088;28;20688;-90
2022/11/04 02:52:01;;;;;;;8.93;2.73;;;10.70;99.90;;;;;;5015136;28;20178;-88
2022/11/04 02:54:35;;;;;;;10.17;2.80;;;10.70;99.90;;;;;;5015041;28;20173;-89
2022/11/04 02:57:04;;;;;;;9.00;3.00;;;10.80;99.90;;;;;;5015558;28;20201;-90
2022/11/04 02:59:46;;;;;;;7.30;2.90;;;10.80;99.90;;;;;;5015392;28;20166;-88
2022/11/04 03:02:17;;;;;;;11.20;3.40;;;10.90;99.90;;;;;;5015510;28;20681;-89
2022/11/04 03:04:47;;;;;;;8.67;2.83;;;10.90;99.90;;;;;;5014356;28;20174;-88
2022/11/04 03:07:17;;;;;;;8.70;2.90;;;11.00;99.90;;;;;;5029711;28;20225;-86
2022/11/04 03:09:50;;;;;;;9.60;2.90;;;11.00;99.30;;;;;;5031105;28;20201;-86
2022/11/04 03:12:24;;;;;;;9.60;3.20;;;11.10;98.40;;;;;;5030250;28;20716;-89
2022/11/04 03:14:54;;;;;;;8.47;2.63;;;11.10;97.40;;;;;;5024115;28;20154;-88
2022/11/04 03:17:30;;;;;;;8.50;2.70;;;11.10;97.00;;;;;;5020817;28;20151;-88
2022/11/04 03:19:58;;;;;;;7.10;2.80;;;11.00;96.70;;;;;;5018564;28;20184;-88
2022/11/04 03:22:28;;;;;;;9.33;3.10;;;11.00;97.20;;;;;;5018625;28;20155;-89
2022/11/04 03:24:54;;;;;;;10.20;3.77;;;11.00;97.20;;;;;;5018613;28;20182;-87
2022/11/04 03:27:34;;;;;;;8.07;3.20;;;11.00;97.30;;;;;;5018258;28;20294;-89
2022/11/04 03:30:08;;;;;;;7.07;2.60;;;11.00;97.40;;;;;;5018527;28;20174;-88
2022/11/04 03:32:49;;;;;;;9.70;2.77;;;11.10;97.60;;;;;;5016959;28;20178;-89
2022/11/04 03:35:16;;;;;;;10.40;3.10;;;11.20;97.10;;;;;;5017139;28;20182;-89
2022/11/04 03:37:43;;;;;;;7.77;2.80;;;11.20;96.30;;;;;;5018237;28;20235;-87
2022/11/04 03:40:12;;;;;;;7.40;2.70;;;11.20;96.30;;;;;;5018343;28;20202;-90
2022/11/04 03:42:46;;;;;;;8.37;3.60;;;11.30;95.70;;;;;;5018294;28;20185;-91
2022/11/04 03:45:13;;;;;;;8.57;2.67;;;11.30;95.40;;;;;;5017063;28;20181;-89
2022/11/04 03:47:39;;;;;;;8.40;3.10;;;11.30;95.30;;;;;;5019871;28;20283;-90
2022/11/04 03:50:12;;;;;;;9.00;2.90;;;11.40;94.80;;;;;;5020036;28;20170;-90
2022/11/04 03:52:38;;;;;;;9.93;2.70;;;11.50;94.20;;;;;;5020792;28;20175;-89
2022/11/04 03:55:05;;;;;;;7.60;2.93;;;11.50;92.90;;;;;;5017417;28;20202;-90
2022/11/04 03:57:38;;;;;;;7.47;2.73;;;11.50;92.90;;;;;;5018564;28;20191;-90
2022/11/04 04:00:11;;;;;;;9.27;2.47;;;11.50;93.00;;;;;;5018235;28;20189;-89
2022/11/04 04:03:15;;;;;;;9.33;3.10;;;11.60;92.30;;;;;;5016607;28;20182;-88
2022/11/04 04:05:49;;;;;;;9.03;3.13;;;11.70;91.90;;;;;;4957797;29;20190;-90
2022/11/04 04:08:29;;;;;;;9.63;2.93;;;11.80;90.40;;;;;;5010389;28;20248;-88
2022/11/04 04:11:31;;;;;;;8.63;2.90;;;11.70;88.40;;;;;;5020040;28;20286;-87
2022/11/04 04:14:04;;;;;;;6.53;2.57;;;11.60;87.00;;;;;;5018538;28;20166;-87
2022/11/04 04:16:46;;;;;;;5.03;2.43;;;11.60;88.90;;;;;;5017498;28;20170;-89
2022/11/04 04:19:18;;;;;;;7.27;2.37;;;11.60;90.30;;;;;;5017345;28;20172;-88
2022/11/04 04:21:55;;;;;;;7.77;2.53;;;11.50;90.30;;;;;;5017559;28;20171;-89
2022/11/04 04:27:31;;;;;;;6.63;2.20;;;11.70;90.50;;;;;;4998588;28;20219;-89
2022/11/04 04:30:12;;;;;;;6.07;2.40;;;11.70;89.10;;;;;;5017112;28;20174;-89
2022/11/04 04:33:06;;;;;;;7.70;2.50;;;11.70;88.60;;;;;;5018149;28;20257;-90
2022/11/04 04:35:41;;;;;;;6.43;2.20;;;11.70;89.20;;;;;;5019130;28;20189;-89
2022/11/04 04:47:21;;;;;;;11.80;2.60;;;11.80;91.00;;;;;;5024691;28;20224;-90
2022/11/04 04:49:50;;;;;;;8.83;2.40;;;11.90;90.60;;;;;;5022714;28;20253;-88
2022/11/04 04:52:16;;;;;;;8.33;2.57;;;11.80;90.00;;;;;;5021276;28;20176;-88
2022/11/04 04:54:43;;;;;;;10.77;3.03;;;11.80;90.50;;;;;;5017556;28;20253;-90
2022/11/04 04:57:09;;;;;;;9.70;2.57;;;11.90;90.20;;;;;;5017354;28;20214;-90
2022/11/04 04:59:35;;;;;;;9.53;2.40;;;11.90;90.00;;;;;;5016920;28;20198;-89
2022/11/04 05:02:00;;;;;;;6.50;2.50;;;11.90;90.10;;;;;;5017006;28;20246;-88
2022/11/04 05:04:27;;;;;;;6.47;2.50;;;11.90;90.10;;;;;;5016928;28;20178;-90
2022/11/04 05:06:53;;;;;;;8.40;2.67;;;11.90;89.70;;;;;;5016924;28;20765;-89
2022/11/04 05:09:18;;;;;;;7.87;2.70;;;11.90;90.20;;;;;;5016163;28;20186;-88
2022/11/04 05:11:44;;;;;;;8.43;2.40;;;11.90;90.40;;;;;;5017007;28;20174;-88
2022/11/04 05:14:09;;;;;;;9.67;2.53;;;11.90;90.60;;;;;;5016605;28;20163;-88
2022/11/04 05:16:35;;;;;;;8.83;2.93;;;11.90;90.90;;;;;;5016487;28;20170;-90
2022/11/04 05:19:01;;;;;;;10.87;2.70;;;12.00;91.10;;;;;;5017260;28;20190;-89
2022/11/04 05:21:26;;;;;;;7.03;2.50;;;12.00;90.40;;;;;;5015712;28;20185;-88
2022/11/04 05:23:52;;;;;;;9.77;2.63;;;12.00;90.20;;;;;;5031380;28;20186;-87
2022/11/04 05:26:17;;;;;;;8.73;2.47;;;12.10;90.80;;;;;;5037236;28;20170;-85
2022/11/04 05:28:43;;;;;;;12.13;2.73;;;12.10;91.00;;;;;;5024823;28;20250;-89
2022/11/04 05:31:29;;;;;;;6.33;2.47;;;12.00;91.50;;;;;;5019027;28;20578;-88
2022/11/04 05:33:55;;;;;;;8.53;2.07;;;11.90;92.90;;;;;;5016651;28;20154;-88
2022/11/04 05:36:21;;;;;;;10.23;2.50;;;11.90;94.90;;;;;;5016356;28;20207;-89
2022/11/04 05:38:52;;;;;;;7.57;2.63;;;11.80;97.50;;;;;;5016643;28;20580;-89
2022/11/04 05:41:27;;;;;;;10.83;2.77;;;11.80;98.80;;;;;;5019684;28;20979;-88
2022/11/04 05:43:55;;;;;;;8.23;2.13;;;11.80;99.90;;;;;;5019568;28;20162;-88
2022/11/04 05:46:21;;;;;;;7.00;2.70;;;11.80;99.90;;;;;;5017330;28;20170;-87
2022/11/04 05:48:47;;;;;;;7.60;2.60;;;12.00;99.90;;;;;;5016739;28;20219;-90
2022/11/04 05:51:18;;;;;;;11.60;3.30;;;11.90;99.90;;;;;;5016563;28;20160;-88
2022/11/04 05:53:45;;;;;;;10.97;4.23;;;11.90;99.90;;;;;;5016695;28;20170;-90
2022/11/04 05:56:10;;;;;;;7.43;2.93;;;12.00;99.90;;;;;;5017755;28;20171;-89
2022/11/04 05:58:37;;;;;;;7.10;2.57;;;11.90;99.90;;;;;;5017493;28;20178;-89
2022/11/04 06:01:23;;;;;;;9.03;2.87;;;12.00;99.90;;;;;;5018741;28;20194;-88
2022/11/04 06:03:50;;;;;;;9.67;2.70;;;12.10;99.90;;;;;;5015991;28;20166;-90
2022/11/04 06:06:15;;;;;;;9.37;2.60;;;12.10;99.40;;;;;;5017189;28;20180;-90
2022/11/04 06:08:41;;;;;;;10.63;2.93;;;12.10;99.50;;;;;;5018890;28;20569;-87
2022/11/04 06:11:06;;;;;;;8.37;2.23;;;12.10;99.10;;;;;;5019109;28;20220;-86
2022/11/04 06:13:32;;;;;;;10.80;3.07;;;12.10;98.40;;;;;;5018783;28;20177;-86
2022/11/04 06:15:58;;;;;;;7.07;2.43;;;12.20;98.60;;;;;;5034490;28;20167;-88
2022/11/04 06:18:23;;;;;;;6.50;2.60;;;12.30;98.30;;;;;;5034293;28;20163;-86
2022/11/04 06:20:49;;;;;;;8.47;2.77;;;12.10;98.50;;;;;;5035794;28;20166;-88
2022/11/04 06:23:15;;;;;;;6.97;2.53;;;12.20;99.00;;;;;;5022845;28;20252;-89
2022/11/04 06:25:40;;;;;;;8.77;3.53;;;12.20;99.90;;;;;;5017547;28;20546;-89
2022/11/04 06:28:06;;;;;;;7.23;2.30;;;12.10;99.70;;;;;;5016052;28;20218;-90
2022/11/04 06:30:32;;;;;;;8.03;2.90;;;12.20;99.40;;;;;;5016863;28;20166;-89
2022/11/04 06:32:57;;;;;;;9.97;3.27;;;12.10;99.40;;;;;;5015808;28;20262;-89
2022/11/04 06:35:23;;;;;;;7.70;2.70;;;12.10;99.90;;;;;;5014075;28;20253;-89
2022/11/04 06:37:49;;;;;;;8.70;2.60;;;12.20;99.90;;;;;;5014188;28;20186;-90
2022/11/04 06:40:18;;;;;;;8.73;2.77;;;12.30;98.80;;;;;;5015137;28;20658;-88
2022/11/04 06:42:44;;;;;;;7.87;2.93;;;12.50;98.50;;;;;;5016087;28;20584;-89
2022/11/04 06:45:10;;;;;;;12.47;2.80;;;12.50;97.00;;;;;;5015620;28;20172;-89
2022/11/04 06:47:36;;;;;;;5.97;2.30;;;12.60;95.00;;;;;;5019104;28;20199;-90
2022/11/04 06:50:02;;;;;;;10.40;3.00;;;12.60;94.30;;;;;;5019476;28;20171;-90
2022/11/04 06:52:27;;;;;;;7.80;3.00;;;12.60;93.40;;;;;;5023084;28;20171;-90
2022/11/04 06:54:53;;;;;;;10.13;2.60;;;12.70;93.00;;;;;;5018096;28;20205;-90
2022/11/04 06:57:19;;;;;;;10.00;3.30;;;12.70;91.40;;;;;;5020080;28;20309;-90
2022/11/04 06:59:44;;;;;;;8.43;2.97;;;12.70;89.30;;;;;;5019625;28;20194;-90
2022/11/04 07:02:11;;;;;;;9.33;3.00;;;12.70;89.20;;;;;;5020217;28;20173;-90
2022/11/04 07:04:37;;;;;;;5.97;2.63;;;12.70;89.60;;;;;;5025919;28;20165;-88
2022/11/04 07:07:03;;;;;;;8.03;2.67;;;12.70;88.00;;;;;;5032108;28;20201;-91
2022/11/04 07:09:28;;;;;;;9.97;2.90;;;12.90;87.50;;;;;;5039104;28;20210;-90
2022/11/04 07:11:54;;;;;;;9.93;2.83;;;12.80;85.80;;;;;;5040511;28;20157;-82
2022/11/04 07:14:23;;;;;;;11.77;2.93;;;12.90;84.50;;;;;;5041304;28;20238;-79
2022/11/04 07:16:50;;;;;;;13.27;3.30;;;12.90;82.50;;;;;;5029731;28;20280;-80
2022/11/04 07:19:16;;;;;;;9.77;3.07;;;12.90;83.10;;;;;;5023645;28;20168;-90
2022/11/04 07:21:48;;;;;;;9.77;3.50;;;12.80;82.70;;;;;;5023563;28;20175;-83
2022/11/04 07:24:14;;;;;;;11.50;3.43;;;13.10;79.60;;;;;;5022580;28;20184;-87
2022/11/04 07:26:41;;;;;;;9.53;3.50;;;13.00;78.60;;;;;;5021400;28;20179;-89
2022/11/04 07:29:10;;;;;;;13.53;3.17;;;13.10;76.50;;;;;;5018647;28;20304;-85
2022/11/04 07:31:36;;;;;;;9.23;3.37;;;13.20;76.10;;;;;;5017762;28;20659;-90
2022/11/04 07:34:02;;;;;;;9.40;3.47;;;13.10;73.80;;;;;;5018764;28;20188;-90
2022/11/04 07:36:28;;;;;;;7.70;2.80;;;13.10;72.80;;;;;;5022080;28;20260;-87
2022/11/04 07:38:54;;;;;;;6.83;2.80;;;12.90;71.90;;;;;;5034150;28;20179;-87
2022/11/04 07:41:20;;;;;;;9.80;3.00;;;12.90;74.30;;;;;;5034311;28;20180;-87
2022/11/04 07:43:53;;;;;;;11.23;2.73;;;13.10;69.90;;;;;;5024608;28;20185;-89
2022/11/04 07:46:25;;;;;;;9.67;2.80;;;13.10;68.50;;;;;;5019975;28;20565;-86
2022/11/04 07:48:51;;;;;;;7.10;2.60;;;13.10;65.30;;;;;;5018871;28;20202;-88
2022/11/04 07:51:18;;;;;;;8.13;2.77;;;13.10;65.40;;;;;;5018602;28;20166;-92
2022/11/04 07:53:45;;;;;;;8.83;2.87;;;13.10;66.50;;;;;;5020908;28;20173;-85
2022/11/04 07:56:12;;;;;;;7.27;2.70;;;13.10;66.30;;;;;;5017981;28;20192;-87
2022/11/04 07:58:38;;;;;;;7.17;2.40;;;13.10;65.30;;;;;;5018225;28;20163;-89
2022/11/04 08:01:15;;;;;;;10.07;3.67;;;13.20;63.20;;;;;;5017466;28;20199;-88
2022/11/04 08:03:41;;;;;;;7.60;2.67;;;13.20;63.60;;;;;;5024817;28;20178;-89
2022/11/04 08:06:08;;;;;;;11.53;2.87;;;13.20;61.00;;;;;;5023958;28;20220;-87
2022/11/04 08:08:37;;;;;;;11.97;3.00;;;13.40;59.50;;;;;;5026235;28;20208;-89
2022/11/04 08:11:07;;;;;;;7.83;2.80;;;13.40;57.60;;;;;;5024692;28;20548;-86
2022/11/04 08:13:36;;;;;;;7.43;2.97;;;13.30;58.00;;;;;;5025604;28;20175;-81
2022/11/04 08:16:04;;;;;;;11.03;2.73;;;13.30;57.70;;;;;;5027789;28;20166;-85
2022/11/04 08:18:32;;;;;;;10.50;2.90;;;13.40;56.90;;;;;;5028029;28;20184;-86
2022/11/04 08:20:59;;;;;;;9.27;3.53;;;13.50;55.70;;;;;;5026190;28;20169;-91
2022/11/04 08:23:25;;;;;;;7.83;2.93;;;13.50;51.10;;;;;;5026016;28;20170;-90
2022/11/04 08:25:51;;;;;;;10.17;3.40;;;13.60;49.00;;;;;;5025762;28;20223;-89
2022/11/04 08:28:28;;;;;;;10.13;3.53;;;13.60;44.50;;;;;;5030884;28;20202;-86
2022/11/04 08:31:09;;;;;;;11.10;3.10;;;13.60;39.80;;;;;;5034371;28;20188;-84
2022/11/04 08:33:37;;;;;;;9.43;2.97;;;13.60;38.40;;;;;;5035288;28;20162;-85
2022/11/04 08:36:22;;;;;;;7.80;3.07;;;13.50;34.30;;;;;;5035374;28;20186;-82
2022/11/04 08:38:53;;;;;;;9.20;3.50;;;13.50;31.40;;;;;;5029794;28;20174;-84
2022/11/04 08:41:22;;;;;;;9.60;3.10;;;13.40;32.10;;;;;;5026399;28;20177;-91
2022/11/04 08:43:49;;;;;;;8.83;2.83;;;13.40;35.50;;;;;;5023803;28;20205;-89
2022/11/04 08:46:24;;;;;;;8.47;3.10;;;13.50;39.10;;;;;;5025781;28;20155;-87
2022/11/04 08:48:50;;;;;;;7.27;2.43;;;13.40;43.10;;;;;;5035138;28;20213;-82
2022/11/04 08:51:43;;;;;;;9.73;3.17;;;13.40;43.90;;;;;;5036551;28;20154;-84
2022/11/04 08:54:12;;;;;;;10.67;3.17;;;13.40;40.80;;;;;;5032521;28;20226;-86
2022/11/04 08:56:59;;;;;;;9.53;2.97;;;13.50;36.80;;;;;;5014753;28;20211;-80
2022/11/04 08:59:27;;;;;;;6.93;2.90;;;13.50;36.00;;;;;;5026730;28;20256;-86
2022/11/04 09:01:54;;;;;;;9.27;2.80;;;13.60;32.50;;;;;;5031139;28;20197;-87
2022/11/04 09:04:26;;;;;;;8.27;2.70;;;13.60;30.50;;;;;;5030360;28;20174;-86
2022/11/04 09:06:55;;;;;;;10.67;3.30;;;13.60;27.80;;;;;;5030159;28;20214;-90
2022/11/04 09:09:22;;;;;;;11.47;3.63;;;13.50;25.60;;;;;;5010582;28;20216;-88
2022/11/04 09:11:48;;;;;;;9.27;2.90;;;13.60;27.60;;;;;;5036189;28;20181;-89
2022/11/04 09:14:26;;;;;;;8.83;3.07;;;13.40;30.20;;;;;;5028030;28;20242;-87
2022/11/04 09:16:52;;;;;;;11.13;3.40;;;13.40;31.40;;;;;;5028962;28;20230;-90
2022/11/04 09:19:21;;;;;;;7.50;3.43;;;13.50;29.50;;;;;;5029494;28;20192;-87
2022/11/04 09:21:54;;;;;;;6.53;2.93;;;13.30;34.40;;;;;;5028289;28;20187;-83
2022/11/04 09:24:20;;;;;;;11.73;3.00;;;13.30;36.20;;;;;;5031214;28;20193;-87
2022/11/04 09:26:48;;;;;;;6.23;2.73;;;13.20;40.70;;;;;;5027973;28;20169;-89
2022/11/04 09:29:13;;;;;;;8.93;2.93;;;13.20;39.40;;;;;;5030564;28;20258;-90
2022/11/04 09:31:50;;;;;;;10.67;3.03;;;13.20;36.50;;;;;;5032692;28;20206;-88
2022/11/04 09:34:16;;;;;;;13.53;3.73;;;13.30;34.40;;;;;;5029676;28;20173;-87
2022/11/04 09:36:46;;;;;;;13.20;2.97;;;13.20;35.40;;;;;;5030388;28;20189;-85
2022/11/04 09:39:12;;;;;;;11.30;3.40;;;13.30;36.30;;;;;;5029443;28;20156;-85
2022/11/04 09:42:00;;;;;;;9.90;4.07;;;12.80;46.30;;;;;;5030016;28;20182;-88
2022/11/04 09:44:53;;;;;;;12.77;4.80;;;12.60;58.50;;;;;;5028810;28;20187;-89
2022/11/04 09:47:44;;;;;;;8.73;2.90;;;12.80;61.90;;;;;;5030903;28;20194;-89
2022/11/04 09:50:49;;;;;;;10.63;3.40;;;13.00;52.00;;;;;;5030601;28;20195;-86
2022/11/04 09:53:42;;;;;;;12.23;4.30;;;13.20;47.10;;;;;;5037657;28;20178;-84
2022/11/04 09:56:28;;;;;;;10.90;3.47;;;13.30;42.00;;;;;;5037304;28;20181;-83
2022/11/04 09:59:16;;;;;;;11.43;4.10;;;13.40;41.60;;;;;;5033320;28;20584;-84
2022/11/04 10:01:57;;;;;;;14.10;3.83;;;13.40;37.40;;;;;;5034465;28;20160;-88
2022/11/04 10:05:13;;;;;;;9.90;4.03;;;13.40;38.80;;;;;;5022780;28;20189;-84
2022/11/04 10:08:17;;;;;;;10.23;3.77;;;13.40;38.40;;;;;;5004245;28;20216;-84
2022/11/04 10:10:52;;;;;;;13.47;3.80;;;13.40;39.00;;;;;;5011821;28;20239;-88
2022/11/04 10:14:13;;;;;;;9.13;3.97;;;13.40;36.30;;;;;;5013622;28;20160;-86
2022/11/04 10:16:42;;;;;;;11.00;4.10;;;13.30;36.40;;;;;;5013573;28;20171;-80
2022/11/04 10:19:47;;;;;;;10.30;3.63;;;13.30;37.70;;;;;;5017823;28;20162;-84
2022/11/04 10:22:59;;;;;;;11.83;4.77;;;13.20;39.20;;;;;;4995311;28;20235;-82
2022/11/04 10:25:45;;;;;;;11.13;4.40;;;13.10;46.20;;;;;;5016279;28;20198;-81
2022/11/04 10:28:49;;;;;;;8.40;5.13;;;13.10;45.00;;;;;;5014804;28;20234;-85
2022/11/04 10:31:19;;;;;;;10.43;5.10;;;13.10;49.00;;;;;;5015515;28;20155;-81
2022/11/04 10:34:20;;;;;;;12.67;4.93;;;12.90;49.80;;;;;;5017707;28;20153;-83
2022/11/04 10:36:57;;;;;;;13.13;5.30;;;13.00;54.10;;;;;;5018416;28;20174;-81
2022/11/04 10:39:29;;;;;;;9.57;4.43;;;13.00;50.90;;;;;;5017936;28;20163;-82
2022/11/04 10:41:57;;;;;;;10.70;4.00;;;12.80;52.20;;;;;;5018533;28;20156;-86
2022/11/04 10:44:33;;;;;;;11.20;4.40;;;12.80;57.50;;;;;;5017999;28;20194;-84
2022/11/04 10:47:20;;;;;;;11.57;4.33;;;12.90;60.70;;;;;;5016008;28;20190;-80
2022/11/04 10:50:17;;;;;;;9.60;4.33;;;12.60;56.50;;;;;;5018417;28;20166;-79
2022/11/04 10:53:31;;;;;;;13.83;4.40;;;12.60;64.20;;;;;;5017679;28;20160;-80
2022/11/04 10:56:12;;;;;;;7.50;4.03;;;12.50;67.10;;;;;;5017951;28;20232;-88
2022/11/04 10:58:58;;;;;;;12.17;5.10;;;12.60;66.90;;;;;;5018855;28;20171;-83
2022/11/04 11:02:12;;;;;;;10.10;4.53;;;12.60;69.00;;;;;;5017917;28;20170;-78
2022/11/04 11:05:12;;;;;;;11.10;4.83;;;12.50;73.40;;;;;;5017700;28;20183;-79
2022/11/04 11:07:57;;;;;;;13.77;7.63;;;12.70;78.20;;;;;;5017097;28;20227;-88
2022/11/04 11:10:34;;;;;;;10.63;7.57;;;12.60;73.10;;;;;;5018245;28;20149;-87
2022/11/04 11:13:07;;;;;;;13.70;9.23;;;12.50;72.00;;;;;;5017959;28;20161;-82
2022/11/04 11:15:42;;;;;;;12.67;9.07;;;12.50;79.40;;;;;;5018533;28;20207;-89
2022/11/04 11:21:54;;;;;;;16.80;8.63;;;12.40;75.60;;;;;;5016596;28;20230;-89
2022/11/04 11:24:36;;;;;;;13.40;8.77;;;12.30;83.60;;;;;;5013462;28;20214;-90
2022/11/04 11:27:11;;;;;;;15.27;9.80;;;12.30;90.30;;;;;;5009975;28;20218;-91
2022/11/04 11:29:52;;;;;;;14.77;9.10;;;12.30;91.80;;;;;;5010292;28;20229;-90
2022/11/04 11:32:35;;;;;;;14.07;9.57;;;12.30;90.10;;;;;;5009846;28;20167;-89
2022/11/04 11:35:52;;;;;;;15.10;8.57;;;12.30;90.40;;;;;;5013853;28;20176;-89
2022/11/04 11:39:15;;;;;;;14.17;8.73;;;12.60;89.60;;;;;;5015721;28;20223;-86
2022/11/04 11:42:08;;;;;;;13.70;8.73;;;12.80;83.50;;;;;;5016943;28;20179;-88
2022/11/04 11:44:58;;;;;;;11.93;7.40;;;13.20;68.10;;;;;;5017827;28;20178;-88
2022/11/04 11:47:31;;;;;;;11.77;6.70;;;13.40;55.20;;;;;;5016901;28;20216;-89
2022/11/04 11:50:24;;;;;;;11.90;6.97;;;13.30;51.30;;;;;;5021164;28;20162;-83
2022/11/04 11:53:10;;;;;;;9.97;6.67;;;13.30;49.90;;;;;;5020551;28;20220;-89
2022/11/04 11:55:55;;;;;;;13.93;6.90;;;13.30;49.30;;;;;;5020989;28;20157;-85
2022/11/04 11:58:33;;;;;;;12.30;6.90;;;13.40;50.70;;;;;;5020636;28;20223;-80
2022/11/04 12:04:21;;;;;;;11.13;6.97;;;12.90;58.20;;;;;;5015617;28;20172;-88
2022/11/04 12:10:56;;;;;;;11.37;7.10;;;12.90;63.50;;;;;;5017567;28;20171;-87
2022/11/04 12:13:59;;;;;;;11.43;7.40;;;12.70;67.40;;;;;;5021150;28;20147;-87
2022/11/04 12:16:43;;;;;;;10.13;6.83;;;12.80;68.40;;;;;;5011383;28;20165;-85
2022/11/04 12:19:21;;;;;;;12.20;6.17;;;12.80;70.90;;;;;;5020848;28;20198;-86
2022/11/04 12:22:02;;;;;;;11.07;6.77;;;12.90;66.90;;;;;;5019501;28;20273;-89
2022/11/04 12:28:12;;;;;;;11.67;6.83;;;13.10;58.40;;;;;;5018950;28;20217;-89
2022/11/04 12:31:21;;;;;;;11.17;7.33;;;13.10;55.80;;;;;;5015014;28;20182;-89
2022/11/04 12:34:01;;;;;;;10.20;5.83;;;13.00;56.50;;;;;;5013838;28;20165;-90
2022/11/04 12:36:42;;;;;;;13.07;6.47;;;12.90;59.60;;;;;;5015940;28;20231;-88
2022/11/04 12:39:38;;;;;;;10.80;5.83;;;12.70;64.30;;;;;;5015739;28;20243;-89
2022/11/04 12:42:47;;;;;;;12.63;6.70;;;12.70;63.10;;;;;;5015972;28;20172;-89
2022/11/04 12:45:41;;;;;;;10.57;5.90;;;12.80;64.80;;;;;;5017087;28;20163;-89
2022/11/04 12:48:18;;;;;;;12.67;6.57;;;13.00;62.30;;;;;;5016857;28;20206;-89
2022/11/04 12:50:48;;;;;;;10.97;5.90;;;13.20;58.00;;;;;;5016187;28;20177;-88
2022/11/04 12:53:55;;;;;;;8.33;4.87;;;13.20;52.80;;;;;;5016549;28;20145;-89
2022/11/04 12:56:36;;;;;;;7.37;4.40;;;13.20;49.40;;;;;;5017947;28;20207;-88
2022/11/04 12:59:40;;;;;;;11.83;5.27;;;13.00;42.80;;;;;;5013944;28;20184;-90
2022/11/04 13:02:29;;;;;;;10.57;5.30;;;13.00;44.00;;;;;;5008508;28;20260;-88
2022/11/04 13:05:40;;;;;;;11.93;5.17;;;12.90;44.40;;;;;;5007604;28;20215;-90
2022/11/04 13:08:41;;;;;;;13.73;5.90;;;12.90;50.10;;;;;;5007418;28;20208;-87
2022/11/04 13:11:26;;;;;;;13.67;6.67;;;13.10;49.20;;;;;;5006784;28;20176;-85
2022/11/04 13:14:28;;;;;;;14.57;7.37;;;13.20;47.00;;;;;;5006536;28;20209;-90
2022/11/04 13:17:09;;;;;;;11.77;6.70;;;13.30;45.20;;;;;;5008008;28;20198;-86
2022/11/04 13:19:44;;;;;;;14.87;7.47;;;13.30;44.20;;;;;;5002956;28;20174;-87
2022/11/04 13:22:21;;;;;;;12.10;7.53;;;13.20;49.50;;;;;;5005542;28;20248;-90
2022/11/04 13:24:58;;;;;;;13.03;8.33;;;13.10;51.30;;;;;;5002313;28;20168;-82
2022/11/04 13:27:49;;;;;;;12.83;8.27;;;13.00;51.80;;;;;;5003437;28;20211;-89
2022/11/04 13:30:37;;;;;;;11.87;8.50;;;13.00;56.10;;;;;;4997272;28;20292;-88
2022/11/04 13:33:33;;;;;;;14.50;9.37;;;12.80;57.20;;;;;;5004909;28;20526;-89
2022/11/04 13:36:25;;;;;;;11.47;8.70;;;13.10;59.10;;;;;;5004188;28;20625;-89
2022/11/04 13:39:05;;;;;;;13.07;8.53;;;13.20;56.70;;;;;;5004587;28;20172;-90
2022/11/04 13:41:49;;;;;;;12.17;9.03;;;13.30;56.00;;;;;;5001294;28;20177;-86
2022/11/04 13:44:27;;;;;;;12.37;8.63;;;13.10;58.40;;;;;;5004120;28;20175;-91
2022/11/04 13:47:04;;;;;;;11.13;8.50;;;13.10;60.60;;;;;;5010904;28;20169;-89
2022/11/04 13:49:36;;;;;;;9.80;7.87;;;13.00;68.10;;;;;;5006153;28;20190;-88
2022/11/04 13:52:13;;;;;;;11.60;8.40;;;13.10;64.30;;;;;;5012341;28;20177;-88
2022/11/04 13:54:54;;;;;;;9.70;6.33;;;13.30;55.80;;;;;;5010748;28;20163;-88
2022/11/04 13:57:22;;;;;;;9.10;5.67;;;13.40;46.70;;;;;;5004960;28;20196;-88
2022/11/04 14:00:18;;;;;;;12.30;5.77;;;13.20;43.20;;;;;;5008971;28;20195;-86
2022/11/04 14:02:46;;;;;;;9.53;5.07;;;13.20;37.00;;;;;;5004825;28;20163;-90
2022/11/04 14:05:26;;;;;;;8.50;4.93;;;13.30;33.60;;;;;;5005823;28;20255;-89
2022/11/04 14:08:01;;;;;;;8.47;5.63;;;13.30;28.10;;;;;;5005972;28;20210;-90
2022/11/04 14:10:48;;;;;;;8.70;5.37;;;13.30;30.70;;;;;;5004372;28;20251;-89